Time;durP1;ratioP1;P1;durP2;ratioP2;P2;SDS_P1;SDS_P2;PMS_P1;PMS_P2;Temp;Humidity;BMP_temperature;BMP_pressure;BME280_temperature;BME280_humidity;BME280_pressure;Samples;Min_cycle;Max_cycle;Signal;HPM_P1;HPM_P2
2023/12/12 00:02:14;;;;;;;16.38;7.88;;;;;;;7.04;100.00;98317.03;4917260;29;20470;-84
2023/12/12 00:04:40;;;;;;;10.82;4.30;;;;;;;7.05;100.00;98313.53;4934145;29;20168;-84
2023/12/12 00:07:05;;;;;;;6.43;3.47;;;;;;;7.02;100.00;98315.44;4917224;29;20047;-85
2023/12/12 00:09:30;;;;;;;9.43;3.63;;;;;;;7.07;100.00;98316.00;4934474;29;20038;-84
2023/12/12 00:11:56;;;;;;;9.18;3.70;;;;;;;6.80;100.00;98272.59;4917272;29;20027;-84
2023/12/12 00:14:21;;;;;;;7.50;3.13;;;;;;;6.92;100.00;98299.56;4934335;29;20031;-84
2023/12/12 00:16:46;;;;;;;6.88;3.70;;;;;;;6.92;100.00;98302.16;4932862;29;20036;-84
2023/12/12 00:19:12;;;;;;;3.50;2.88;;;;;;;7.10;100.00;98324.47;4934008;29;20102;-84
2023/12/12 00:21:37;;;;;;;6.68;3.22;;;;;;;6.98;100.00;98309.59;4937663;29;20055;-84
2023/12/12 00:24:03;;;;;;;3.92;2.50;;;;;;;7.06;100.00;98322.94;4938280;29;20087;-84
2023/12/12 00:26:29;;;;;;;4.05;2.65;;;;;;;7.05;100.00;98346.34;4938198;29;20532;-84
2023/12/12 00:28:54;;;;;;;5.07;2.60;;;;;;;6.90;100.00;98314.31;4937937;29;20028;-84
2023/12/12 00:31:20;;;;;;;7.55;3.35;;;;;;;7.07;100.00;98341.91;4937808;29;20038;-84
2023/12/12 00:33:45;;;;;;;4.10;2.80;;;;;;;7.03;100.00;98346.41;4920252;29;20051;-84
2023/12/12 00:36:11;;;;;;;6.93;3.83;;;;;;;7.12;100.00;98358.88;4920304;29;20035;-84
2023/12/12 00:38:37;;;;;;;5.00;3.13;;;;;;;6.73;100.00;98307.44;4920260;29;20386;-84
2023/12/12 00:41:04;;;;;;;3.45;2.63;;;;;;;7.11;100.00;98357.19;4920472;29;20028;-84
2023/12/12 00:43:29;;;;;;;5.18;2.72;;;;;;;7.03;100.00;98354.16;4920281;29;20477;-84
2023/12/12 00:45:54;;;;;;;4.50;2.78;;;;;;;6.82;100.00;98326.84;4920259;29;20075;-84
2023/12/12 00:48:20;;;;;;;5.70;3.17;;;;;;;7.00;100.00;98354.34;4920169;29;20078;-84
2023/12/12 00:50:45;;;;;;;6.03;2.70;;;;;;;6.87;100.00;98348.13;4935792;29;20063;-84
2023/12/12 00:53:11;;;;;;;2.97;2.38;;;;;;;6.71;100.00;98324.81;4919856;29;20027;-84
2023/12/12 00:55:36;;;;;;;6.00;2.65;;;;;;;6.90;100.00;98364.34;4937156;29;20233;-84
2023/12/12 00:58:01;;;;;;;6.72;2.50;;;;;;;6.97;100.00;98377.81;4935877;29;20078;-84
2023/12/12 01:00:27;;;;;;;7.32;3.50;;;;;;;6.83;100.00;98362.16;4937136;29;20393;-84
2023/12/12 01:02:52;;;;;;;3.72;2.58;;;;;;;6.94;100.00;98380.53;4936938;29;20034;-84
2023/12/12 01:05:17;;;;;;;6.00;2.75;;;;;;;6.97;100.00;98385.56;4919654;29;20041;-84
2023/12/12 01:07:43;;;;;;;3.55;2.50;;;;;;;6.79;100.00;98345.97;4936775;29;20044;-84
2023/12/12 01:10:08;;;;;;;5.20;2.40;;;;;;;6.95;100.00;98395.16;4920008;29;20118;-84
2023/12/12 01:12:34;;;;;;;3.80;2.35;;;;;;;6.86;100.00;98375.75;4935539;29;20031;-84
2023/12/12 01:15:00;;;;;;;2.45;1.92;;;;;;;7.00;100.00;98399.19;4937075;29;20019;-84
2023/12/12 01:17:26;;;;;;;3.63;2.70;;;;;;;7.01;100.00;98402.63;4919433;29;20027;-84
2023/12/12 01:19:51;;;;;;;5.32;2.22;;;;;;;6.97;100.00;98401.94;4936378;29;20027;-84
2023/12/12 01:22:17;;;;;;;5.28;2.85;;;;;;;7.06;100.00;98420.50;4936983;29;20050;-84
2023/12/12 01:24:42;;;;;;;4.47;2.67;;;;;;;6.83;100.00;98375.13;4936890;29;20024;-84
2023/12/12 01:27:08;;;;;;;2.90;2.30;;;;;;;6.74;100.00;98374.66;4936489;29;20486;-84
2023/12/12 01:29:34;;;;;;;5.85;2.08;;;;;;;7.04;100.00;98430.94;4919321;29;20031;-84
2023/12/12 01:32:00;;;;;;;4.85;1.95;;;;;;;6.90;100.00;98402.31;4936836;29;20040;-84
2023/12/12 01:34:26;;;;;;;3.38;2.47;;;;;;;6.99;100.00;98426.00;4919392;29;20030;-84
2023/12/12 01:36:51;;;;;;;2.33;1.80;;;;;;;6.88;100.00;98407.59;4935388;29;20497;-84
2023/12/12 01:39:17;;;;;;;4.25;2.03;;;;;;;7.00;100.00;98426.84;4919598;29;20056;-84
2023/12/12 01:41:48;;;;;;;2.33;1.75;;;;;;;7.02;100.00;98429.34;4936427;29;20031;-84
2023/12/12 01:44:14;;;;;;;3.30;2.08;;;;;;;6.97;100.00;98434.75;4936457;29;20031;-84
2023/12/12 01:46:41;;;;;;;4.22;2.03;;;;;;;6.91;100.00;98425.56;4934851;29;20027;-84
2023/12/12 01:49:07;;;;;;;4.88;2.20;;;;;;;6.91;100.00;98420.38;4918874;29;20031;-84
2023/12/12 01:51:33;;;;;;;3.80;2.00;;;;;;;6.63;100.00;98386.47;4919364;29;20031;-84
2023/12/12 01:54:01;;;;;;;2.78;2.15;;;;;;;6.89;100.00;98429.13;4936111;29;20047;-84
2023/12/12 01:56:28;;;;;;;3.28;1.92;;;;;;;6.93;100.00;98446.19;4936264;29;20074;-85
2023/12/12 01:58:54;;;;;;;2.47;2.08;;;;;;;6.77;100.00;98412.47;4935942;29;20043;-84
2023/12/12 02:01:21;;;;;;;3.50;2.08;;;;;;;6.90;100.00;98431.63;4934596;29;20035;-84
2023/12/12 02:03:48;;;;;;;4.78;2.00;;;;;;;6.90;100.00;98438.56;4936009;29;20130;-84
2023/12/12 02:06:21;;;;;;;4.07;1.70;;;;;;;7.00;100.00;98460.50;4919003;29;20027;-84
2023/12/12 02:08:47;;;;;;;3.97;1.80;;;;;;;6.81;100.00;98429.53;4935788;29;20047;-84
2023/12/12 02:11:13;;;;;;;4.43;2.20;;;;;;;6.90;100.00;98457.50;4936059;29;20481;-84
2023/12/12 02:13:38;;;;;;;1.90;1.65;;;;;;;6.89;100.00;98453.25;4935618;29;20042;-84
2023/12/12 02:16:04;;;;;;;2.47;1.80;;;;;;;7.00;100.00;98463.09;4935936;29;20488;-84
2023/12/12 02:18:29;;;;;;;1.50;1.40;;;;;;;6.83;100.00;98442.41;4934617;29;20086;-84
2023/12/12 02:20:54;;;;;;;4.57;1.95;;;;;;;6.86;100.00;98458.59;4935429;29;20031;-84
2023/12/12 02:23:19;;;;;;;1.60;1.45;;;;;;;6.74;100.00;98434.19;4918352;29;20027;-84
2023/12/12 02:25:45;;;;;;;2.67;1.42;;;;;;;6.89;100.00;98467.97;4918293;29;20031;-84
2023/12/12 02:28:12;;;;;;;4.63;1.80;;;;;;;6.74;100.00;98438.50;4918371;29;20035;-84
2023/12/12 02:30:38;;;;;;;3.72;1.83;;;;;;;6.89;100.00;98479.16;4935193;29;20501;-84
2023/12/12 02:33:04;;;;;;;2.72;1.52;;;;;;;6.86;100.00;98474.13;4918501;29;20040;-84
2023/12/12 02:35:31;;;;;;;2.55;1.67;;;;;;;6.95;100.00;98494.38;4935546;29;20053;-84
2023/12/12 02:37:56;;;;;;;1.70;1.52;;;;;;;7.00;100.00;98505.34;4933795;29;20363;-84
2023/12/12 02:40:21;;;;;;;2.30;1.58;;;;;;;6.93;100.00;98487.59;4918289;29;20027;-85
2023/12/12 02:42:48;;;;;;;3.72;1.75;;;;;;;6.92;100.00;98498.88;4934566;29;20102;-84
2023/12/12 02:45:14;;;;;;;3.50;1.58;;;;;;;6.88;100.00;98502.53;4934924;29;20036;-84
2023/12/12 02:47:39;;;;;;;2.00;1.58;;;;;;;6.92;100.00;98504.06;4934905;29;20482;-84
2023/12/12 02:50:05;;;;;;;2.25;1.80;;;;;;;6.89;100.00;98511.97;4918265;29;20027;-84
2023/12/12 02:52:30;;;;;;;2.33;1.60;;;;;;;6.65;100.00;98485.53;4935245;29;20487;-84
2023/12/12 02:54:56;;;;;;;4.38;1.52;;;;;;;6.66;100.00;98492.41;4917829;29;20024;-84
2023/12/12 02:57:22;;;;;;;2.10;1.77;;;;;;;6.75;100.00;98513.47;4933479;29;20059;-84
2023/12/12 02:59:48;;;;;;;3.10;1.65;;;;;;;6.74;100.00;98517.00;4917654;29;20050;-84
2023/12/12 03:02:13;;;;;;;3.00;1.80;;;;;;;6.75;100.00;98515.25;4918186;29;20223;-84
2023/12/12 03:04:43;;;;;;;3.38;2.20;;;;;;;6.88;100.00;98544.78;4934743;29;20031;-84
2023/12/12 03:07:08;;;;;;;4.07;1.67;;;;;;;6.84;100.00;98529.47;4917346;29;20509;-84
2023/12/12 03:09:33;;;;;;;2.05;1.60;;;;;;;6.63;100.00;98500.31;4934821;29;20036;-84
2023/12/12 03:11:59;;;;;;;1.52;1.42;;;;;;;6.78;100.00;98545.28;4934494;29;20493;-84
2023/12/12 03:14:30;;;;;;;2.38;1.60;;;;;;;6.65;100.00;98514.00;4934605;29;20478;-84
2023/12/12 03:16:56;;;;;;;2.45;1.75;;;;;;;6.77;100.00;98549.63;4934574;29;20094;-84
2023/12/12 03:19:22;;;;;;;2.65;1.67;;;;;;;6.80;100.00;98557.25;4917375;29;20023;-84
2023/12/12 03:21:48;;;;;;;2.13;1.67;;;;;;;6.76;100.00;98547.97;4934493;29;20031;-84
2023/12/12 03:24:14;;;;;;;3.83;1.70;;;;;;;6.71;100.00;98550.78;4934628;29;20023;-84
2023/12/12 03:26:39;;;;;;;3.03;1.83;;;;;;;6.68;100.00;98553.50;4934544;29;20036;-84
2023/12/12 03:29:04;;;;;;;2.70;1.90;;;;;;;6.50;100.00;98516.41;4934223;29;20023;-84
2023/12/12 03:31:30;;;;;;;3.92;1.73;;;;;;;6.46;100.00;98506.31;4934491;29;20465;-84
2023/12/12 03:33:55;;;;;;;2.65;1.65;;;;;;;6.85;100.00;98570.78;4934512;29;20031;-85
2023/12/12 03:36:20;;;;;;;2.20;1.60;;;;;;;6.79;100.00;98560.75;4917498;29;20032;-84
2023/12/12 03:38:46;;;;;;;1.83;1.60;;;;;;;6.73;100.00;98540.34;4934291;29;20034;-84
2023/12/12 03:41:13;;;;;;;1.73;1.50;;;;;;;6.67;100.00;98541.47;4934229;29;20036;-84
2023/12/12 03:43:38;;;;;;;2.53;1.83;;;;;;;6.82;100.00;98558.00;4934355;29;20138;-84
2023/12/12 03:46:03;;;;;;;2.45;1.77;;;;;;;6.74;100.00;98553.22;4917447;29;20453;-84
2023/12/12 03:48:28;;;;;;;4.05;1.95;;;;;;;6.71;100.00;98555.09;4917475;29;20127;-84
2023/12/12 03:50:54;;;;;;;2.28;1.85;;;;;;;6.71;100.00;98557.69;4933091;29;20055;-84
2023/12/12 03:53:19;;;;;;;2.78;1.60;;;;;;;6.49;100.00;98522.50;4934194;29;20023;-84
2023/12/12 03:55:45;;;;;;;2.40;1.60;;;;;;;6.68;100.00;98563.84;4919282;29;20036;-84
2023/12/12 03:58:10;;;;;;;2.58;2.03;;;;;;;6.60;100.00;98544.44;4936848;29;20066;-84
2023/12/12 04:00:35;;;;;;;2.25;1.88;;;;;;;6.53;100.00;98536.16;4938741;29;20059;-84
2023/12/12 04:03:01;;;;;;;3.30;1.42;;;;;;;6.59;100.00;98555.69;4938296;29;20031;-84
2023/12/12 04:05:26;;;;;;;1.85;1.45;;;;;;;6.72;100.00;98585.25;4921209;29;20055;-84
2023/12/12 04:07:51;;;;;;;3.85;1.60;;;;;;;6.60;100.00;98563.38;4938411;29;20051;-84
2023/12/12 04:10:18;;;;;;;2.10;1.40;;;;;;;6.66;100.00;98578.63;4939099;29;20417;-85
2023/12/12 04:12:43;;;;;;;1.98;1.33;;;;;;;6.72;100.00;98588.66;4922165;29;20032;-84
2023/12/12 04:15:09;;;;;;;2.53;1.70;;;;;;;6.77;100.00;98596.19;4938583;29;20043;-84
2023/12/12 04:17:34;;;;;;;2.05;1.60;;;;;;;6.73;100.00;98594.69;4921958;29;20028;-84
2023/12/12 04:19:59;;;;;;;1.42;1.33;;;;;;;6.68;100.00;98600.06;4921198;29;20020;-84
2023/12/12 04:22:24;;;;;;;1.50;1.40;;;;;;;6.50;100.00;98570.75;4938701;29;20035;-84
2023/12/12 04:24:50;;;;;;;2.95;1.80;;;;;;;6.63;100.00;98598.63;4953734;29;20031;-84
2023/12/12 04:27:15;;;;;;;2.25;1.80;;;;;;;6.63;100.00;98589.09;4947787;29;20098;-84
2023/12/12 04:29:41;;;;;;;1.40;1.30;;;;;;;6.76;100.00;98617.81;4922135;29;20034;-85
2023/12/12 04:32:06;;;;;;;1.30;1.20;;;;;;;6.69;100.00;98606.09;4923877;29;20039;-84
2023/12/12 04:34:32;;;;;;;2.30;1.45;;;;;;;6.61;100.00;98595.25;4958881;29;20015;-87
2023/12/12 04:36:59;;;;;;;3.03;1.50;;;;;;;6.46;100.00;98576.97;4958585;29;20528;-84
2023/12/12 04:39:25;;;;;;;2.92;1.65;;;;;;;6.68;100.00;98609.59;4958159;29;20114;-84
2023/12/12 04:41:50;;;;;;;5.80;2.22;;;;;;;6.70;100.00;98615.50;4924084;29;20028;-84
2023/12/12 04:44:16;;;;;;;2.00;1.70;;;;;;;6.66;100.00;98621.78;4954068;29;20121;-84
2023/12/12 04:46:41;;;;;;;2.13;1.77;;;;;;;6.66;100.00;98614.84;4938120;29;20480;-84
2023/12/12 04:49:07;;;;;;;4.45;2.42;;;;;;;6.40;100.00;98574.66;4937535;29;20047;-84
2023/12/12 04:51:32;;;;;;;2.53;1.70;;;;;;;6.61;100.00;98603.84;4938145;29;20035;-84
2023/12/12 04:53:57;;;;;;;3.63;2.00;;;;;;;6.61;100.00;98611.63;4953755;28;20050;-84
2023/12/12 04:56:23;;;;;;;2.50;1.90;;;;;;;6.56;100.00;98610.16;4937797;29;20127;-84
2023/12/12 04:58:48;;;;;;;2.42;2.20;;;;;;;6.58;100.00;98616.13;4953788;29;20516;-84
2023/12/12 05:01:17;;;;;;;3.20;2.45;;;;;;;6.41;100.00;98591.88;4937656;29;20035;-84
2023/12/12 05:03:43;;;;;;;3.75;2.53;;;;;;;6.58;100.00;98642.81;4953965;29;20098;-84
2023/12/12 05:06:09;;;;;;;3.42;2.75;;;;;;;6.59;100.00;98638.47;4953376;28;20039;-84
2023/12/12 05:08:34;;;;;;;4.18;3.00;;;;;;;6.50;100.00;98632.81;4937519;29;20502;-84
2023/12/12 05:11:00;;;;;;;4.05;2.15;;;;;;;6.48;100.00;98620.88;4953518;29;20586;-84
2023/12/12 05:13:25;;;;;;;5.10;2.60;;;;;;;6.28;100.00;98602.84;4953979;29;20934;-84
2023/12/12 05:15:50;;;;;;;4.32;2.53;;;;;;;6.62;100.00;98659.06;4924125;29;20091;-84
2023/12/12 05:18:16;;;;;;;4.38;2.63;;;;;;;6.34;100.00;98610.31;4936878;29;20032;-84
2023/12/12 05:20:42;;;;;;;4.45;2.85;;;;;;;6.56;100.00;98654.97;4936912;29;20038;-84
2023/12/12 05:23:07;;;;;;;6.25;3.80;;;;;;;6.54;100.00;98646.47;4936468;29;20035;-84
2023/12/12 05:25:33;;;;;;;6.68;3.90;;;;;;;6.59;100.00;98661.78;4936720;29;20024;-84
2023/12/12 05:27:58;;;;;;;5.60;3.13;;;;;;;6.42;100.00;98628.91;4919380;29;20039;-84
2023/12/12 05:30:24;;;;;;;5.63;3.95;;;;;;;6.56;100.00;98660.16;4919686;29;20031;-84
2023/12/12 05:32:49;;;;;;;10.00;4.90;;;;;;;6.58;100.00;98657.50;4919501;29;20090;-84
2023/12/12 05:35:15;;;;;;;7.35;4.20;;;;;;;6.39;100.00;98635.06;4936613;29;20524;-84
2023/12/12 05:37:40;;;;;;;9.38;5.35;;;;;;;6.54;100.00;98661.16;4936439;29;20382;-84
2023/12/12 05:40:06;;;;;;;9.63;5.80;;;;;;;6.28;100.00;98613.19;4936091;29;20027;-84
2023/12/12 05:42:31;;;;;;;7.82;4.60;;;;;;;6.51;100.00;98664.69;4933424;29;20031;-84
2023/12/12 05:44:57;;;;;;;8.73;4.68;;;;;;;6.56;100.00;98678.25;4919306;29;20020;-84
2023/12/12 05:47:22;;;;;;;5.40;4.28;;;;;;;6.43;100.00;98665.03;4936373;29;20470;-83
2023/12/12 05:49:48;;;;;;;5.18;2.80;;;;;;;6.37;100.00;98664.50;4935185;29;20027;-84
2023/12/12 05:52:14;;;;;;;4.60;2.90;;;;;;;6.50;100.00;98681.97;4934719;29;20102;-84
2023/12/12 05:54:40;;;;;;;4.50;2.85;;;;;;;6.31;100.00;98659.59;4936139;29;20028;-84
2023/12/12 05:57:05;;;;;;;5.32;3.10;;;;;;;6.50;100.00;98694.91;4918926;29;20036;-83
2023/12/12 05:59:31;;;;;;;4.25;2.80;;;;;;;6.37;100.00;98670.50;4936294;29;20434;-84
2023/12/12 06:01:56;;;;;;;3.72;2.58;;;;;;;6.52;100.00;98696.56;4936136;29;20111;-84
2023/12/12 06:04:21;;;;;;;4.65;3.05;;;;;;;6.39;100.00;98685.94;4919060;29;20059;-84
2023/12/12 06:06:47;;;;;;;5.82;3.15;;;;;;;6.45;100.00;98696.88;4918966;29;20418;-84
2023/12/12 06:09:17;;;;;;;4.30;3.40;;;;;;;6.48;100.00;98707.06;4918159;29;20043;-84
2023/12/12 06:11:42;;;;;;;3.10;2.10;;;;;;;6.42;100.00;98701.34;4936051;29;20170;-84
2023/12/12 06:14:08;;;;;;;3.67;2.88;;;;;;;6.42;100.00;98709.09;4935981;29;20513;-84
2023/12/12 06:16:34;;;;;;;6.00;3.78;;;;;;;6.41;100.00;98697.91;4936008;29;20111;-85
2023/12/12 06:18:59;;;;;;;3.55;3.17;;;;;;;6.47;100.00;98713.16;4935511;29;20035;-83
2023/12/12 06:21:27;;;;;;;5.10;2.75;;;;;;;6.42;100.00;98722.88;4936098;29;20039;-83
2023/12/12 06:23:52;;;;;;;4.47;3.08;;;;;;;6.43;100.00;98745.22;4935647;29;20040;-83
2023/12/12 06:26:17;;;;;;;3.90;2.35;;;;;;;6.10;100.00;98705.34;4919228;29;20378;-83
2023/12/12 06:28:42;;;;;;;4.20;2.25;;;;;;;6.02;100.00;98704.81;4918980;29;20106;-84
2023/12/12 06:31:08;;;;;;;6.70;2.97;;;;;;;6.24;100.00;98746.97;4935924;29;20543;-82
2023/12/12 06:33:34;;;;;;;3.15;2.85;;;;;;;6.22;100.00;98757.34;4935912;29;20036;-83
2023/12/12 06:35:59;;;;;;;3.45;2.97;;;;;;;5.81;100.00;98685.88;4934233;29;20499;-83
2023/12/12 06:38:25;;;;;;;5.25;3.00;;;;;;;6.12;100.00;98745.75;4918243;29;20067;-83
2023/12/12 06:40:51;;;;;;;5.95;2.83;;;;;;;6.11;100.00;98740.63;4935682;29;20024;-83
2023/12/12 06:43:17;;;;;;;5.88;3.20;;;;;;;5.93;100.00;98711.22;4934482;29;20102;-83
2023/12/12 06:45:42;;;;;;;5.18;2.45;;;;;;;6.07;100.00;98747.69;4936189;29;20418;-83
2023/12/12 06:48:07;;;;;;;6.07;3.47;;;;;;;6.03;100.00;98740.13;4935174;29;20063;-85
2023/12/12 06:50:33;;;;;;;8.93;4.85;;;;;;;6.01;100.00;98740.19;4918683;29;20549;-84
2023/12/12 06:52:58;;;;;;;6.95;3.70;;;;;;;6.13;100.00;98765.50;4937507;29;20028;-84
2023/12/12 06:55:23;;;;;;;10.00;4.60;;;;;;;6.20;100.00;98776.44;4937124;29;20040;-85
2023/12/12 06:57:49;;;;;;;7.10;4.80;;;;;;;6.10;100.00;98765.63;4918382;29;20143;-85
2023/12/12 07:00:14;;;;;;;11.35;5.32;;;;;;;5.73;100.00;98706.88;4918177;29;20126;-84
2023/12/12 07:02:40;;;;;;;12.40;6.90;;;;;;;6.18;100.00;98779.06;4936767;29;20059;-84
2023/12/12 07:05:05;;;;;;;9.20;5.82;;;;;;;6.16;100.00;98767.13;4936295;29;20046;-84
2023/12/12 07:07:32;;;;;;;9.30;5.30;;;;;;;6.18;100.00;98768.72;4918074;29;20489;-84
2023/12/12 07:09:58;;;;;;;6.70;4.55;;;;;;;6.10;100.00;98764.78;4935497;29;20051;-84
2023/12/12 07:12:24;;;;;;;6.75;4.05;;;;;;;6.15;100.00;98773.19;4918310;29;20036;-84
2023/12/12 07:14:50;;;;;;;8.75;4.88;;;;;;;6.05;100.00;98759.81;4934912;29;20024;-85
2023/12/12 07:17:15;;;;;;;4.28;3.13;;;;;;;6.16;100.00;98780.91;4917413;29;20046;-84
2023/12/12 07:19:41;;;;;;;6.28;2.97;;;;;;;6.15;100.00;98789.56;4935828;29;20490;-84
2023/12/12 07:22:07;;;;;;;2.88;2.42;;;;;;;6.12;100.00;98792.28;4917996;29;20039;-84
2023/12/12 07:24:32;;;;;;;3.85;2.50;;;;;;;5.90;100.00;98761.28;4935111;29;20420;-84
2023/12/12 07:26:57;;;;;;;4.50;2.70;;;;;;;5.99;100.00;98785.94;4917721;29;20023;-85
2023/12/12 07:29:23;;;;;;;3.38;2.40;;;;;;;5.93;100.00;98779.25;4934778;29;20024;-84
2023/12/12 07:31:48;;;;;;;2.30;2.05;;;;;;;5.89;100.00;98776.84;4934777;29;20039;-84
2023/12/12 07:34:14;;;;;;;5.07;2.50;;;;;;;5.98;100.00;98800.63;4918795;29;20378;-84
2023/12/12 07:36:40;;;;;;;2.45;2.00;;;;;;;6.04;100.00;98801.25;4918950;29;20032;-84
2023/12/12 07:39:06;;;;;;;5.05;2.47;;;;;;;6.14;100.00;98826.66;4935729;29;20591;-84
2023/12/12 07:41:35;;;;;;;5.07;2.13;;;;;;;5.93;100.00;98788.75;4932956;29;20050;-84
2023/12/12 07:44:00;;;;;;;4.32;2.08;;;;;;;5.97;100.00;98806.66;4932861;29;20408;-85
2023/12/12 07:46:26;;;;;;;3.35;2.60;;;;;;;6.04;100.00;98815.00;4917086;29;20130;-84
2023/12/12 07:48:51;;;;;;;4.95;3.47;;;;;;;6.04;100.00;98820.19;4917501;29;20028;-84
2023/12/12 07:51:17;;;;;;;6.15;4.22;;;;;;;6.12;100.00;98820.72;4933798;29;20437;-84
2023/12/12 07:53:42;;;;;;;6.93;4.07;;;;;;;6.15;100.00;98830.06;4933622;29;20508;-84
2023/12/12 07:56:08;;;;;;;5.68;5.15;;;;;;;5.89;100.00;98793.19;4919087;29;20068;-84
2023/12/12 07:58:33;;;;;;;8.23;7.28;;;;;;;5.96;100.00;98796.41;4918257;29;20437;-85
2023/12/12 08:00:59;;;;;;;10.63;6.63;;;;;;;5.91;100.00;98795.72;4932463;29;20132;-85
2023/12/12 08:03:25;;;;;;;9.73;7.68;;;;;;;6.16;100.00;98848.13;4916337;29;20066;-84
2023/12/12 08:05:50;;;;;;;49.67;44.50;;;;;;;5.82;100.00;98791.78;4932723;29;20043;-85
2023/12/12 08:08:15;;;;;;;139.70;125.47;;;;;;;6.09;100.00;98825.16;4932178;29;20056;-85
2023/12/12 08:10:41;;;;;;;80.35;71.93;;;;;;;6.25;100.00;98845.16;4916939;29;20477;-85
2023/12/12 08:13:08;;;;;;;73.75;66.03;;;;;;;6.25;100.00;98854.66;4935866;29;20576;-84
2023/12/12 08:15:33;;;;;;;82.90;73.97;;;;;;;6.31;100.00;98844.03;4937124;29;20027;-85
2023/12/12 08:17:59;;;;;;;31.48;25.20;;;;;;;6.22;100.00;98839.25;4918392;29;20171;-85
2023/12/12 08:20:25;;;;;;;24.85;20.60;;;;;;;6.28;100.00;98862.28;4935766;29;20033;-85
2023/12/12 08:22:50;;;;;;;62.83;47.40;;;;;;;6.27;100.00;98842.47;4918793;29;20432;-85
2023/12/12 08:25:16;;;;;;;25.73;14.15;;;;;;;6.24;100.00;98847.81;4918742;29;20087;-85
2023/12/12 08:27:41;;;;;;;34.47;25.35;;;;;;;6.28;100.00;98854.53;4936139;29;20467;-84
2023/12/12 08:30:07;;;;;;;27.05;19.27;;;;;;;6.28;100.00;98851.06;4935250;29;20024;-84
2023/12/12 08:32:33;;;;;;;16.02;8.88;;;;;;;6.28;100.00;98844.19;4935549;29;20031;-84
2023/12/12 08:34:58;;;;;;;12.05;7.45;;;;;;;6.25;100.00;98852.06;4934883;29;20036;-85
2023/12/12 08:37:24;;;;;;;13.98;8.15;;;;;;;6.20;100.00;98843.66;4937072;29;20074;-85
2023/12/12 08:39:49;;;;;;;15.05;10.18;;;;;;;6.08;100.00;98811.41;4918206;29;20082;-84
2023/12/12 08:42:14;;;;;;;22.88;12.50;;;;;;;6.27;100.00;98852.81;4938688;29;20028;-84
2023/12/12 08:44:41;;;;;;;29.42;17.80;;;;;;;6.26;100.00;98858.91;4938838;29;20039;-84
2023/12/12 08:47:09;;;;;;;19.92;12.00;;;;;;;6.12;100.00;98828.47;4921205;29;20032;-84
2023/12/12 08:49:37;;;;;;;23.25;15.65;;;;;;;6.25;100.00;98845.16;4938317;29;20023;-84
2023/12/12 08:52:07;;;;;;;21.73;13.80;;;;;;;6.24;100.00;98847.81;4920886;29;20035;-83
2023/12/12 08:54:36;;;;;;;27.42;19.52;;;;;;;6.20;100.00;98846.25;4921246;29;20027;-84
2023/12/12 08:57:02;;;;;;;19.25;13.38;;;;;;;6.33;100.00;98857.75;4920830;29;20119;-84
2023/12/12 08:59:28;;;;;;;36.65;23.15;;;;;;;6.28;100.00;98848.50;4936353;29;20254;-85
2023/12/12 09:01:53;;;;;;;23.42;14.32;;;;;;;6.35;100.00;98868.88;4938082;29;20024;-84
2023/12/12 09:04:19;;;;;;;30.83;19.48;;;;;;;6.37;100.00;98855.88;4937171;29;20036;-85
2023/12/12 09:06:44;;;;;;;28.77;18.17;;;;;;;6.12;100.00;98822.47;4938057;29;20047;-84
2023/12/12 09:09:11;;;;;;;44.60;28.75;;;;;;;6.33;100.00;98851.75;4920124;29;20063;-84
2023/12/12 09:11:37;;;;;;;84.82;49.60;;;;;;;6.20;100.00;98823.81;4920467;29;20079;-85
2023/12/12 09:14:02;;;;;;;44.67;28.98;;;;;;;6.20;100.00;98818.66;4920563;29;20027;-84
2023/12/12 09:16:28;;;;;;;28.55;19.70;;;;;;;6.41;100.00;98853.09;4920648;29;20027;-84
2023/12/12 09:18:53;;;;;;;28.27;20.50;;;;;;;6.41;100.00;98857.44;4920259;29;20440;-84
2023/12/12 09:21:19;;;;;;;37.00;27.67;;;;;;;6.40;100.00;98846.22;4919604;29;20087;-85
2023/12/12 09:23:44;;;;;;;13.75;10.38;;;;;;;6.29;100.00;98842.44;4920023;29;20027;-84
2023/12/12 09:26:14;;;;;;;10.98;8.02;;;;;;;6.35;100.00;98848.19;4935764;29;20032;-83
2023/12/12 09:28:43;;;;;;;71.93;44.75;;;;;;;6.24;100.00;98829.72;4919996;29;20175;-84
2023/12/12 09:31:09;;;;;;;55.75;33.58;;;;;;;6.36;100.00;98839.53;4919751;29;20403;-84
2023/12/12 09:33:35;;;;;;;34.95;23.27;;;;;;;6.30;100.00;98826.00;4920016;29;20032;-84
2023/12/12 09:36:01;;;;;;;56.33;47.28;;;;;;;6.24;100.00;98809.03;4937893;29;20032;-84
2023/12/12 09:38:26;;;;;;;35.42;26.42;;;;;;;6.51;100.00;98845.78;4919278;29;20027;-85
2023/12/12 09:40:52;;;;;;;18.65;16.65;;;;;;;6.58;100.00;98844.63;4934964;29;20035;-85
2023/12/12 09:43:18;;;;;;;18.90;16.85;;;;;;;6.48;100.00;98817.44;4935300;29;20036;-84
2023/12/12 09:45:47;;;;;;;23.73;18.88;;;;;;;6.78;100.00;98853.25;4934842;29;20038;-83
2023/12/12 09:48:17;;;;;;;17.73;12.95;;;;;;;6.80;100.00;98843.69;4922131;29;20090;-84
2023/12/12 09:50:46;;;;;;;19.85;15.10;;;;;;;6.74;100.00;98831.84;4939937;29;20024;-84
2023/12/12 09:53:12;;;;;;;14.98;11.35;;;;;;;6.91;100.00;98851.78;4920707;29;20094;-84
2023/12/12 09:55:38;;;;;;;13.65;10.43;;;;;;;6.94;100.00;98851.66;4922233;29;20034;-84
2023/12/12 09:58:04;;;;;;;21.88;15.43;;;;;;;6.99;100.00;98866.13;4941036;29;20031;-85
2023/12/12 10:00:29;;;;;;;27.40;13.50;;;;;;;6.91;100.00;98842.31;4940540;29;20544;-84
2023/12/12 10:02:57;;;;;;;26.13;16.95;;;;;;;6.66;100.00;98795.13;4936944;29;20039;-84
2023/12/12 10:05:26;;;;;;;11.55;7.50;;;;;;;7.02;100.00;98851.34;4935340;29;20034;-85
2023/12/12 10:07:52;;;;;;;10.10;5.53;;;;;;;7.00;100.00;98848.81;4956395;29;20063;-85
2023/12/12 10:10:18;;;;;;;9.40;4.38;;;;;;;7.11;100.00;98856.09;4942236;29;20020;-85
2023/12/12 10:12:47;;;;;;;6.90;4.75;;;;;;;7.05;100.00;98840.84;4944150;29;20096;-84
2023/12/12 10:15:26;;;;;;;5.50;4.25;;;;;;;7.06;100.00;98830.41;4951359;29;20048;-84
2023/12/12 10:17:59;;;;;;;10.98;5.07;;;;;;;7.28;100.00;98852.72;4947923;29;20032;-85
2023/12/12 10:20:26;;;;;;;13.55;5.90;;;;;;;7.20;100.00;98832.38;4946351;29;20066;-84
2023/12/12 10:22:57;;;;;;;14.68;7.00;;;;;;;7.30;100.00;98830.22;4937848;29;20035;-85
2023/12/12 10:25:24;;;;;;;19.95;8.27;;;;;;;7.32;100.00;98833.56;4918285;29;20080;-85
2023/12/12 10:27:53;;;;;;;11.48;5.88;;;;;;;7.38;100.00;98849.66;4918520;29;20051;-85
2023/12/12 10:30:20;;;;;;;12.20;6.15;;;;;;;7.37;100.00;98849.72;4935668;29;20036;-85
2023/12/12 10:32:47;;;;;;;12.98;6.70;;;;;;;7.42;100.00;98851.19;4918565;29;20042;-85
2023/12/12 10:35:13;;;;;;;14.57;8.10;;;;;;;7.42;100.00;98846.03;4935914;29;20044;-85
2023/12/12 10:37:38;;;;;;;17.27;9.50;;;;;;;7.40;100.00;98831.44;4918903;29;20156;-85
2023/12/12 10:40:22;;;;;;;12.85;8.82;;;;;;;7.55;100.00;98856.66;4918259;29;20492;-85
2023/12/12 10:42:48;;;;;;;13.73;7.68;;;;;;;7.54;100.00;98838.56;4936083;29;20035;-84
2023/12/12 10:45:15;;;;;;;8.95;6.50;;;;;;;7.55;100.00;98835.91;4917876;29;20328;-85
2023/12/12 10:47:45;;;;;;;9.35;6.00;;;;;;;7.40;100.00;98803.78;4920211;29;20052;-85
2023/12/12 10:50:14;;;;;;;11.27;6.38;;;;;;;7.75;100.00;98853.97;4918623;29;20050;-85
2023/12/12 10:52:42;;;;;;;13.07;6.72;;;;;;;7.58;100.00;98821.97;4918040;29;20040;-85
2023/12/12 10:55:13;;;;;;;9.65;6.88;;;;;;;7.72;100.00;98835.13;4894802;29;20071;-85
2023/12/12 10:57:42;;;;;;;16.85;9.70;;;;;;;7.48;100.00;98795.66;4894876;29;20522;-85
2023/12/12 11:00:11;;;;;;;11.07;7.03;;;;;;;7.87;100.00;98849.91;4894959;29;20139;-85
2023/12/12 11:02:39;;;;;;;8.18;4.95;;;;;;;7.89;100.00;98857.63;4879458;29;20086;-85
2023/12/12 11:05:07;;;;;;;7.70;3.90;;;;;;;7.88;100.00;98855.94;4879133;29;20085;-85
2023/12/12 11:07:33;;;;;;;6.35;4.15;;;;;;;7.85;100.00;98845.75;4895042;29;20531;-85
2023/12/12 11:09:58;;;;;;;12.93;4.90;;;;;;;7.80;100.00;98835.59;4894762;29;20103;-85
2023/12/12 11:12:26;;;;;;;21.20;5.88;;;;;;;7.71;100.00;98831.69;4894787;29;20103;-85
2023/12/12 11:14:52;;;;;;;12.45;7.13;;;;;;;7.83;100.00;98847.56;4895149;29;20040;-85
2023/12/12 11:17:18;;;;;;;15.93;7.30;;;;;;;7.79;100.00;98846.84;4882401;29;20028;-84
2023/12/12 11:19:44;;;;;;;23.90;19.98;;;;;;;7.84;100.00;98857.03;4898690;29;20101;-85
2023/12/12 11:22:09;;;;;;;25.30;18.80;;;;;;;7.81;100.00;98865.78;4894960;29;20173;-86
2023/12/12 11:25:02;;;;;;;20.88;14.45;;;;;;;7.82;100.00;98870.03;4894494;29;20037;-85